Time;durP1;ratioP1;P1;durP2;ratioP2;P2;SDS_P1;SDS_P2;PMS_P1;PMS_P2;Temp;Humidity;BMP_temperature;BMP_pressure;BME280_temperature;BME280_humidity;BME280_pressure;Samples;Min_cycle;Max_cycle;Signal;HPM_P1;HPM_P2
2023/05/11 06:07:14;;;;;;;;;2.00;2.00;;;;;18.20;57.86;101359.75;5066761;27;45522;-73
2023/05/11 06:09:42;;;;;;;;;3.67;2.33;;;;;18.35;57.37;101355.03;5066777;28;45496;-74
2023/05/11 06:12:08;;;;;;;;;0.33;0.33;;;;;18.55;57.56;101353.47;5064460;28;45612;-73
2023/05/11 06:14:34;;;;;;;;;3.00;1.00;;;;;18.74;56.76;101357.38;5055593;28;45498;-74
2023/05/11 06:16:59;;;;;;;;;1.00;1.00;;;;;18.92;56.92;101358.63;5055194;28;45344;-74
2023/05/11 06:19:24;;;;;;;;;3.00;1.00;;;;;19.09;56.50;101353.75;5060540;28;53151;-74
2023/05/11 06:21:50;;;;;;;;;2.00;2.00;;;;;19.25;56.20;101356.03;5059392;28;45410;-74
2023/05/11 06:24:15;;;;;;;;;3.00;2.00;;;;;19.45;55.95;101356.25;5061637;27;54728;-74
2023/05/11 06:26:40;;;;;;;;;5.33;1.67;;;;;19.58;55.14;101365.03;5056030;27;45364;-74
2023/05/11 06:29:06;;;;;;;;;3.67;3.67;;;;;19.71;55.49;101362.16;5059463;28;45418;-74
2023/05/11 06:31:32;;;;;;;;;2.67;1.00;;;;;19.83;55.22;101364.84;5064376;28;45488;-73
2023/05/11 06:33:58;;;;;;;;;2.00;2.00;;;;;19.96;54.95;101367.34;5061698;28;45384;-72
2023/05/11 06:36:24;;;;;;;;;3.00;1.67;;;;;20.05;54.59;101361.22;5067003;28;45494;-73
2023/05/11 06:38:49;;;;;;;;;2.00;2.00;;;;;20.14;54.68;101359.56;5064859;28;45453;-73
2023/05/11 06:41:14;;;;;;;;;1.00;1.00;;;;;20.25;54.41;101366.75;5068714;28;45383;-73
2023/05/11 06:43:40;;;;;;;;;3.33;2.33;;;;;20.33;54.77;101360.69;5059906;27;45720;-73
2023/05/11 06:46:05;;;;;;;;;2.00;2.00;;;;;20.43;54.25;101361.59;5064574;28;46177;-73
2023/05/11 06:48:30;;;;;;;;;5.00;2.67;;;;;20.50;54.67;101361.91;5060104;28;45445;-73
2023/05/11 06:50:56;;;;;;;;;3.00;2.00;;;;;20.58;54.64;101370.22;5061270;28;45457;-72
2023/05/11 06:53:21;;;;;;;;;1.00;1.00;;;;;20.66;54.14;101367.69;5052305;28;45451;-73
2023/05/11 06:55:47;;;;;;;;;3.00;1.67;;;;;20.73;54.71;101367.16;5050285;27;46968;-72
2023/05/11 06:58:13;;;;;;;;;3.67;1.00;;;;;20.78;54.51;101362.22;5054233;28;46857;-73
2023/05/11 07:00:38;;;;;;;;;4.33;1.00;;;;;20.86;54.41;101366.94;5051299;28;45621;-72
2023/05/11 07:03:04;;;;;;;;;3.67;2.00;;;;;20.92;54.40;101366.41;5064646;28;45549;-73
2023/05/11 07:05:30;;;;;;;;;3.00;1.67;;;;;20.97;53.84;101372.25;5055073;28;46370;-76
2023/05/11 07:07:55;;;;;;;;;3.67;2.00;;;;;21.02;54.61;101379.94;5066277;28;45374;-74
2023/05/11 07:10:21;;;;;;;;;3.00;2.00;;;;;21.03;54.54;101377.13;5065060;28;45802;-79
2023/05/11 07:12:46;;;;;;;;;1.00;1.00;;;;;21.06;54.31;101370.59;5060943;28;45727;-78
2023/05/11 07:15:11;;;;;;;;;1.67;1.67;;;;;21.09;53.95;101375.69;5065408;28;48445;-79
2023/05/11 07:17:37;;;;;;;;;1.00;1.00;;;;;21.13;53.93;101373.59;5052737;27;47543;-77
2023/05/11 07:20:02;;;;;;;;;3.00;1.33;;;;;21.14;54.00;101370.75;5049415;28;45571;-78
2023/05/11 07:22:28;;;;;;;;;3.67;2.33;;;;;21.16;54.30;101373.31;5053651;28;45543;-77
2023/05/11 07:24:53;;;;;;;;;4.00;2.00;;;;;21.19;54.41;101376.59;5049912;28;45514;-78
2023/05/11 07:27:18;;;;;;;;;0.67;0.67;;;;;21.21;54.30;101362.94;5054308;28;49153;-80
2023/05/11 07:29:44;;;;;;;;;2.00;2.00;;;;;21.25;54.30;101374.34;5049098;28;56973;-80
2023/05/11 07:32:09;;;;;;;;;2.00;2.00;;;;;21.29;53.74;101368.53;5053136;28;49375;-79
2023/05/11 07:34:35;;;;;;;;;3.00;2.00;;;;;21.32;54.06;101375.50;5052692;28;45458;-79
2023/05/11 07:37:00;;;;;;;;;4.00;1.00;;;;;21.34;53.16;101378.94;5046798;28;45470;-78
2023/05/11 07:39:25;;;;;;;;;2.00;2.00;;;;;21.37;53.72;101375.94;5048058;28;45473;-77
2023/05/11 07:41:51;;;;;;;;;4.00;3.00;;;;;21.37;53.25;101377.78;5043258;28;49690;-78
2023/05/11 07:44:17;;;;;;;;;2.00;2.00;;;;;21.38;53.59;101383.03;5053553;28;45469;-78
2023/05/11 07:46:42;;;;;;;;;4.00;2.00;;;;;21.41;53.61;101385.47;5048060;28;45673;-78
2023/05/11 07:49:09;;;;;;;;;2.00;2.00;;;;;21.43;52.98;101379.94;5052723;28;45846;-79
2023/05/11 07:51:35;;;;;;;;;3.00;3.00;;;;;21.44;53.69;101377.09;5048071;28;45559;-79
2023/05/11 07:54:00;;;;;;;;;2.00;2.00;;;;;21.48;52.99;101380.34;5044438;28;46323;-77
2023/05/11 07:56:26;;;;;;;;;2.00;2.00;;;;;21.50;52.82;101375.66;5044177;28;45443;-75
2023/05/11 07:58:51;;;;;;;;;2.00;2.00;;;;;21.51;52.62;101380.09;5046493;28;45454;-76
2023/05/11 08:01:16;;;;;;;;;2.67;2.67;;;;;21.52;52.67;101380.94;5042020;28;45714;-76
2023/05/11 08:03:42;;;;;;;;;1.67;1.00;;;;;21.53;52.76;101377.22;5047859;28;46019;-76
2023/05/11 08:06:07;;;;;;;;;3.00;2.00;;;;;21.55;52.49;101376.09;5053798;28;45660;-76
2023/05/11 08:08:32;;;;;;;;;0.67;0.33;;;;;21.55;52.90;101373.38;5039549;28;45368;-76
2023/05/11 08:11:00;;;;;;;;;2.00;2.00;;;;;21.55;52.59;101361.75;5037846;28;45455;-77
2023/05/11 08:13:25;;;;;;;;;3.00;3.00;;;;;21.54;52.88;101371.69;5043336;28;46345;-77
2023/05/11 08:15:50;;;;;;;;;3.67;3.00;;;;;21.53;52.69;101361.03;5038476;28;46216;-78
2023/05/11 08:18:16;;;;;;;;;3.33;1.67;;;;;21.52;52.81;101365.59;5053143;28;45608;-77
2023/05/11 08:20:42;;;;;;;;;5.33;3.00;;;;;21.54;52.67;101360.88;5049685;28;46092;-78
2023/05/11 08:23:09;;;;;;;;;3.33;1.00;;;;;21.57;52.93;101362.44;5051180;28;45967;-79
2023/05/11 08:25:34;;;;;;;;;2.33;2.33;;;;;21.59;52.71;101368.59;5047140;28;45502;-81
2023/05/11 08:28:00;;;;;;;;;3.00;2.00;;;;;21.61;52.87;101371.97;5050723;28;45391;-75
2023/05/11 08:30:26;;;;;;;;;3.67;3.00;;;;;21.62;52.64;101362.03;5051474;28;45372;-76
2023/05/11 08:32:51;;;;;;;;;2.00;2.00;;;;;21.65;52.60;101364.44;5045710;28;45592;-78
2023/05/11 08:35:16;;;;;;;;;3.00;2.00;;;;;21.63;52.85;101361.91;5053390;28;45814;-78
2023/05/11 08:37:42;;;;;;;;;3.00;3.00;;;;;21.67;52.95;101363.31;5050610;28;45335;-77
2023/05/11 08:40:10;;;;;;;;;2.00;2.00;;;;;21.70;52.49;101367.56;5053117;28;45820;-78
2023/05/11 08:42:39;;;;;;;;;2.00;2.00;;;;;21.71;52.55;101370.19;5046544;28;45490;-79
2023/05/11 08:45:05;;;;;;;;;1.00;1.00;;;;;21.69;52.63;101357.78;5043588;28;45415;-79
2023/05/11 08:47:32;;;;;;;;;1.00;1.00;;;;;21.73;52.55;101364.63;5046466;28;45481;-81
2023/05/11 08:49:57;;;;;;;;;2.67;2.67;;;;;21.75;52.58;101369.91;5050861;28;45617;-80
2023/05/11 08:52:24;;;;;;;;;5.00;2.33;;;;;21.76;52.87;101371.59;5053076;28;45398;-79
2023/05/11 08:54:50;;;;;;;;;2.00;2.00;;;;;21.78;52.89;101370.47;5045280;28;45964;-76
2023/05/11 08:57:16;;;;;;;;;2.00;2.00;;;;;21.80;53.00;101371.19;5048691;28;45792;-76
2023/05/11 08:59:45;;;;;;;;;2.33;2.00;;;;;21.81;52.38;101369.31;5042170;28;45509;-76
2023/05/11 09:02:15;;;;;;;;;2.33;1.67;;;;;21.82;52.51;101371.91;5042439;28;46219;-75
2023/05/11 09:04:41;;;;;;;;;2.00;2.00;;;;;21.83;52.77;101372.75;5030315;28;45731;-76
2023/05/11 09:07:08;;;;;;;;;2.33;2.33;;;;;21.84;52.85;101366.34;5052578;28;45622;-75
2023/05/11 09:09:34;;;;;;;;;1.00;1.00;;;;;21.85;53.04;101377.03;5048227;28;45503;-74
2023/05/11 09:12:00;;;;;;;;;2.00;2.00;;;;;21.88;53.01;101375.03;5044555;28;45520;-75
2023/05/11 09:14:26;;;;;;;;;3.00;3.00;;;;;21.89;52.32;101377.59;5039129;28;45433;-77
2023/05/11 09:16:51;;;;;;;;;1.67;1.67;;;;;21.91;52.63;101375.59;5046482;28;45625;-78
2023/05/11 09:19:17;;;;;;;;;0.00;0.00;;;;;21.91;52.77;101372.88;5050940;28;45907;-81
2023/05/11 09:21:42;;;;;;;;;2.67;2.67;;;;;21.93;52.42;101367.34;5050828;28;46339;-76
2023/05/11 09:24:11;;;;;;;;;4.00;2.00;;;;;21.95;52.83;101363.50;5045970;28;45923;-77
2023/05/11 09:26:37;;;;;;;;;3.00;2.67;;;;;21.95;52.48;101365.38;5050439;28;45531;-75
2023/05/11 09:29:03;;;;;;;;;5.00;3.00;;;;;21.94;50.88;101366.34;5051851;28;45764;-76
2023/05/11 09:31:42;;;;;;;;;2.67;2.67;;;;;21.92;50.75;101361.09;5052526;28;46711;-76
2023/05/11 09:34:18;;;;;;;;;3.00;2.00;;;;;21.92;50.76;101366.50;5051442;28;45399;-76
2023/05/11 09:36:45;;;;;;;;;2.00;2.00;;;;;21.90;50.79;101370.34;5052577;28;45704;-76
2023/05/11 09:39:12;;;;;;;;;0.67;0.67;;;;;21.85;49.96;101368.91;5052411;28;45570;-76
2023/05/11 09:41:37;;;;;;;;;2.00;2.00;;;;;21.82;50.26;101371.91;5051802;28;45513;-76
2023/05/11 09:44:04;;;;;;;;;4.00;4.00;;;;;21.81;50.26;101363.91;5050547;28;45538;-76
2023/05/11 09:46:30;;;;;;;;;1.00;1.00;;;;;21.81;49.89;101359.38;5052414;28;45430;-75
2023/05/11 09:48:59;;;;;;;;;3.00;1.00;;;;;21.79;50.03;101365.94;5052267;28;45425;-76
2023/05/11 09:51:33;;;;;;;;;1.33;1.33;;;;;21.75;50.38;101359.97;5039687;28;45935;-76
2023/05/11 09:54:00;;;;;;;;;3.00;2.00;;;;;21.74;50.13;101355.53;5052160;28;45503;-76
2023/05/11 09:56:46;;;;;;;;;2.33;1.00;;;;;21.74;50.06;101358.22;5040709;28;45502;-76
2023/05/11 09:59:13;;;;;;;;;2.00;2.00;;;;;21.71;50.37;101356.66;5049538;28;45618;-76
2023/05/11 10:01:39;;;;;;;;;1.67;1.67;;;;;21.70;50.23;101351.38;5041170;28;45393;-77
2023/05/11 10:04:05;;;;;;;;;2.00;2.00;;;;;21.68;50.02;101351.53;5049433;28;45395;-76
2023/05/11 10:06:52;;;;;;;;;0.00;0.00;;;;;21.66;49.97;101349.97;5047679;28;45483;-76
2023/05/11 10:09:22;;;;;;;;;3.00;3.00;;;;;21.64;50.23;101344.69;5047169;28;45456;-76
2023/05/11 10:11:49;;;;;;;;;4.00;2.67;;;;;21.64;49.60;101349.25;5052375;28;45997;-76
2023/05/11 10:14:17;;;;;;;;;2.00;2.00;;;;;21.62;50.10;101341.28;5049253;28;45513;-76
2023/05/11 10:16:43;;;;;;;;;1.67;1.67;;;;;21.63;50.34;101342.13;5036941;28;45484;-76
2023/05/11 10:19:10;;;;;;;;;3.00;3.00;;;;;21.63;49.64;101342.13;5036663;28;45451;-76
2023/05/11 10:21:37;;;;;;;;;7.00;5.00;;;;;21.62;49.63;101343.97;5048370;28;45757;-75
2023/05/11 10:24:03;;;;;;;;;5.33;5.00;;;;;21.57;49.19;101332.75;5050648;28;45392;-75
2023/05/11 10:26:30;;;;;;;;;4.33;4.33;;;;;21.56;48.63;101337.31;5050426;28;45445;-75
2023/05/11 10:28:57;;;;;;;;;4.00;4.00;;;;;21.57;48.38;101341.72;5051258;28;45394;-75
2023/05/11 10:31:24;;;;;;;;;6.00;6.00;;;;;21.55;47.57;101342.84;5050628;28;45649;-76
2023/05/11 10:33:50;;;;;;;;;6.67;6.67;;;;;21.52;47.29;101333.19;5040321;28;45775;-75
2023/05/11 10:36:17;;;;;;;;;7.67;5.00;;;;;21.50;47.61;101323.50;5041331;28;45587;-75
2023/05/11 10:38:42;;;;;;;;;5.00;5.00;;;;;21.47;48.13;101327.34;5048576;28;45598;-77
2023/05/11 10:41:22;;;;;;;;;4.00;4.00;;;;;21.49;48.11;101332.63;5047837;28;45681;-77
2023/05/11 10:44:12;;;;;;;;;5.67;5.67;;;;;21.49;48.67;101327.22;5049296;28;45486;-80
2023/05/11 10:47:20;;;;;;;;;5.00;5.00;;;;;21.49;48.98;101330.75;5051478;28;45391;-79
2023/05/11 10:50:04;;;;;;;;;7.00;5.67;;;;;21.52;48.59;101335.88;5025027;28;45469;-81
2023/05/11 10:53:13;;;;;;;;;5.00;5.00;;;;;21.54;49.18;101336.56;5029454;28;45821;-80
2023/05/11 10:55:57;;;;;;;;;4.00;4.00;;;;;21.56;48.99;101331.03;5024079;28;45599;-74
2023/05/11 10:58:37;;;;;;;;;5.67;5.00;;;;;21.57;49.19;101328.19;5025457;28;45905;-81
2023/05/11 11:01:20;;;;;;;;;6.00;5.00;;;;;21.61;49.03;101322.53;5029323;28;45598;-74
2023/05/11 11:04:01;;;;;;;;;5.67;4.33;;;;;21.62;48.74;101318.81;5031423;28;47118;-73
2023/05/11 11:06:28;;;;;;;;;3.33;3.33;;;;;21.63;49.30;101328.63;5032133;28;45651;-74
2023/05/11 11:08:55;;;;;;;;;3.33;3.33;;;;;21.64;48.95;101317.69;5030974;28;45672;-73
2023/05/11 11:11:49;;;;;;;;;5.33;3.00;;;;;21.65;49.26;101323.94;5031524;28;45512;-75
2023/05/11 11:14:17;;;;;;;;;4.00;4.00;;;;;21.64;48.94;101317.69;5028335;28;46184;-73
2023/05/11 11:17:13;;;;;;;;;3.00;3.00;;;;;21.68;48.75;101318.25;5024743;28;45740;-73
2023/05/11 11:19:38;;;;;;;;;4.67;3.33;;;;;21.68;48.85;101327.22;5021136;28;45540;-72
2023/05/11 11:22:05;;;;;;;;;5.33;5.33;;;;;21.64;48.88;101315.00;5031467;28;45477;-72
2023/05/11 11:24:36;;;;;;;;;4.00;4.00;;;;;21.65;48.70;101324.78;5031829;28;45412;-72
2023/05/11 11:27:02;;;;;;;;;5.33;5.33;;;;;21.64;48.85;101316.81;5047857;28;45499;-72
2023/05/11 11:29:29;;;;;;;;;5.00;5.00;;;;;21.64;49.01;101331.19;5049629;28;45485;-78
2023/05/11 11:31:54;;;;;;;;;6.00;4.00;;;;;21.60;48.64;101327.06;5041705;28;45481;-79
2023/05/11 11:34:26;;;;;;;;;3.33;3.33;;;;;21.63;48.93;101328.63;5054257;28;46107;-79
2023/05/11 11:36:54;;;;;;;;;4.00;4.00;;;;;21.62;49.11;101329.63;5046980;28;45507;-79
2023/05/11 11:39:27;;;;;;;;;4.00;4.00;;;;;21.61;48.93;101331.47;5054395;28;45477;-75
2023/05/11 11:42:03;;;;;;;;;5.00;5.00;;;;;21.59;49.05;101331.59;5043952;28;45605;-78
2023/05/11 11:44:29;;;;;;;;;4.33;4.33;;;;;21.59;48.79;101326.19;5048381;28;46907;-76
2023/05/11 11:47:13;;;;;;;;;3.33;3.33;;;;;21.58;49.18;101329.06;5053546;28;45332;-77
2023/05/11 11:49:40;;;;;;;;;7.00;4.00;;;;;21.58;49.11;101326.38;5048190;28;45564;-76
2023/05/11 11:52:10;;;;;;;;;3.00;3.00;;;;;21.57;48.95;101322.81;5054459;28;45727;-76
2023/05/11 11:54:37;;;;;;;;;4.33;4.33;;;;;21.59;49.38;101323.50;5052222;28;47232;-76
2023/05/11 11:57:02;;;;;;;;;4.33;4.33;;;;;21.57;49.13;101321.94;5054307;28;45490;-76
2023/05/11 11:59:29;;;;;;;;;4.33;3.33;;;;;21.57;48.92;101332.75;5047436;28;45422;-74
2023/05/11 12:01:56;;;;;;;;;8.33;7.00;;;;;21.55;48.83;101326.63;5042345;28;45486;-76
2023/05/11 12:04:27;;;;;;;;;5.67;5.67;;;;;21.55;49.40;101323.94;5045367;28;46374;-78
2023/05/11 12:06:57;;;;;;;;;10.00;6.00;;;;;21.54;49.26;101330.34;5052257;28;45497;-77
2023/05/11 12:09:22;;;;;;;;;4.00;4.00;;;;;21.54;49.33;101325.78;5047442;28;45757;-74
2023/05/11 12:11:48;;;;;;;;;5.00;5.00;;;;;21.56;49.67;101326.50;5053763;28;45707;-79
2023/05/11 12:14:14;;;;;;;;;6.00;4.33;;;;;21.58;49.97;101331.78;5052227;28;46041;-78
2023/05/11 12:16:39;;;;;;;;;5.00;5.00;;;;;21.58;49.60;101327.19;5047533;28;45477;-80
2023/05/11 12:19:05;;;;;;;;;5.00;5.00;;;;;21.61;49.75;101317.13;5052647;28;45612;-79
2023/05/11 12:21:31;;;;;;;;;2.00;1.67;;;;;21.63;49.89;101320.53;5053079;28;45520;-77
2023/05/11 12:23:57;;;;;;;;;5.00;5.00;;;;;21.66;50.03;101329.19;5052799;28;45500;-76
2023/05/11 12:26:26;;;;;;;;;4.67;4.67;;;;;21.68;50.25;101324.53;5048080;28;45497;-75
2023/05/11 12:29:06;;;;;;;;;4.00;4.00;;;;;21.71;49.95;101323.38;5047696;28;45506;-74
2023/05/11 12:31:39;;;;;;;;;5.00;5.00;;;;;21.74;50.10;101316.88;5051778;28;46147;-77
2023/05/11 12:34:05;;;;;;;;;4.00;3.00;;;;;21.77;49.84;101319.25;5039555;28;47232;-79
2023/05/11 12:36:32;;;;;;;;;4.67;3.67;;;;;21.79;50.32;101315.44;5044089;28;47142;-75
2023/05/11 12:38:58;;;;;;;;;3.33;3.33;;;;;21.80;50.11;101311.75;5043355;28;45838;-75
2023/05/11 12:41:23;;;;;;;;;3.33;3.00;;;;;21.83;50.41;101310.59;5047503;28;45467;-76
2023/05/11 12:43:53;;;;;;;;;3.00;2.00;;;;;21.85;50.37;101308.59;5049990;28;47196;-79
2023/05/11 12:46:19;;;;;;;;;5.33;5.00;;;;;21.88;49.99;101312.88;5052995;28;45673;-78
2023/05/11 12:48:46;;;;;;;;;5.00;3.67;;;;;21.88;50.05;101304.75;5051061;28;45526;-80
2023/05/11 12:51:12;;;;;;;;;6.00;5.00;;;;;21.91;50.37;101304.47;5053404;28;45442;-74
2023/05/11 12:53:39;;;;;;;;;2.33;2.33;;;;;21.92;50.56;101312.44;5046538;28;46481;-76
2023/05/11 12:56:05;;;;;;;;;3.67;3.67;;;;;21.94;50.36;101305.03;5050182;28;45443;-78
2023/05/11 12:58:38;;;;;;;;;3.33;3.33;;;;;21.97;50.29;101301.19;5050579;28;45426;-78
2023/05/11 13:01:05;;;;;;;;;2.00;2.00;;;;;21.97;50.23;101302.06;5040946;28;45513;-79
2023/05/11 13:03:33;;;;;;;;;2.67;2.67;;;;;21.98;50.65;101297.50;5052449;28;45407;-76
2023/05/11 13:06:11;;;;;;;;;4.33;3.00;;;;;21.99;50.33;101299.22;5052103;28;45606;-78
2023/05/11 13:08:43;;;;;;;;;5.00;5.00;;;;;22.02;50.76;101298.91;5051050;28;45418;-73
2023/05/11 13:11:21;;;;;;;;;4.00;2.67;;;;;22.02;50.16;101295.38;5050320;28;45866;-73
2023/05/11 13:13:47;;;;;;;;;3.67;3.00;;;;;22.06;50.52;101300.31;5049333;28;46353;-73
2023/05/11 13:16:30;;;;;;;;;4.00;4.00;;;;;22.08;50.58;101298.31;5057522;28;46359;-73
2023/05/11 13:18:59;;;;;;;;;5.33;2.00;;;;;22.09;50.73;101289.22;5051276;28;45589;-73
2023/05/11 13:21:25;;;;;;;;;3.67;3.67;;;;;22.03;50.33;101275.44;5051349;28;45486;-75
2023/05/11 13:23:50;;;;;;;;;3.00;3.00;;;;;22.11;50.35;101287.22;5052899;28;46455;-72
2023/05/11 13:26:23;;;;;;;;;6.00;2.00;;;;;22.14;50.32;101282.53;5044858;28;45522;-75
2023/05/11 13:28:49;;;;;;;;;3.00;3.00;;;;;22.15;50.62;101281.53;5045090;28;45674;-74
2023/05/11 13:31:15;;;;;;;;;2.33;2.33;;;;;22.16;50.66;101283.22;5044547;28;45365;-75
2023/05/11 13:33:40;;;;;;;;;4.00;2.00;;;;;22.18;49.70;101283.94;5053059;28;45588;-71
2023/05/11 13:36:05;;;;;;;;;4.00;3.00;;;;;22.14;50.14;101269.84;5049719;28;53017;-73
2023/05/11 13:38:31;;;;;;;;;4.00;4.00;;;;;22.17;49.79;101277.69;5051553;28;45606;-71
2023/05/11 13:40:56;;;;;;;;;2.00;2.00;;;;;22.18;50.04;101273.13;5043724;28;45985;-72
2023/05/11 13:43:21;;;;;;;;;3.00;3.00;;;;;22.18;50.17;101282.09;5046824;28;45510;-71
2023/05/11 13:45:47;;;;;;;;;3.67;3.67;;;;;22.18;50.25;101279.38;5048851;28;45443;-71
2023/05/11 13:48:13;;;;;;;;;2.00;2.00;;;;;22.11;50.26;101260.19;5049296;28;45504;-72
2023/05/11 13:50:38;;;;;;;;;5.67;3.33;;;;;22.17;50.53;101269.56;5044009;28;45550;-71
2023/05/11 13:53:04;;;;;;;;;2.00;2.00;;;;;21.95;50.06;101230.22;5046582;28;46328;-71
2023/05/11 13:55:29;;;;;;;;;4.67;3.00;;;;;21.95;50.29;101227.53;5052653;28;45742;-71
2023/05/11 13:57:55;;;;;;;;;3.00;3.00;;;;;22.03;50.15;101229.50;5045512;28;45565;-69
2023/05/11 14:00:21;;;;;;;;;3.00;3.00;;;;;22.21;50.17;101268.28;5033387;28;45499;-72
2023/05/11 14:02:49;;;;;;;;;2.00;2.00;;;;;22.01;49.95;101226.06;5047254;28;45579;-72
2023/05/11 14:05:15;;;;;;;;;3.67;3.00;;;;;21.99;50.52;101220.84;5044537;28;45590;-73
2023/05/11 14:07:40;;;;;;;;;2.33;2.33;;;;;22.05;50.38;101222.94;5051921;28;45635;-71
2023/05/11 14:10:06;;;;;;;;;3.00;2.67;;;;;22.09;50.40;101231.59;5050553;28;45625;-71
2023/05/11 14:12:31;;;;;;;;;3.00;3.00;;;;;22.09;50.54;101228.91;5050132;28;46175;-72
2023/05/11 14:14:57;;;;;;;;;3.67;3.67;;;;;22.27;50.43;101250.59;5046909;28;45544;-71
2023/05/11 14:17:22;;;;;;;;;3.00;3.00;;;;;22.17;50.63;101237.13;5053606;28;45610;-72
2023/05/11 14:19:48;;;;;;;;;3.00;3.00;;;;;22.03;50.69;101208.72;5046899;28;45614;-72
2023/05/11 14:22:13;;;;;;;;;2.00;2.00;;;;;22.11;50.55;101219.63;5047665;28;45611;-72
2023/05/11 14:24:38;;;;;;;;;3.00;3.00;;;;;22.06;50.59;101207.56;5038091;28;45597;-71
2023/05/11 14:27:04;;;;;;;;;2.33;2.33;;;;;22.11;49.19;101218.78;5050875;28;45874;-70
2023/05/11 14:29:29;;;;;;;;;3.67;3.00;;;;;22.04;48.69;101205.03;5055787;28;45511;-71
2023/05/11 14:31:55;;;;;;;;;3.33;3.33;;;;;21.97;48.41;101199.34;5055929;28;45456;-71
2023/05/11 14:34:20;;;;;;;;;3.67;3.67;;;;;21.97;48.29;101202.06;5056098;28;45557;-71
2023/05/11 14:36:45;;;;;;;;;5.00;3.00;;;;;21.82;48.66;101176.47;5056139;28;45441;-71
2023/05/11 14:39:11;;;;;;;;;3.33;3.33;;;;;21.89;48.88;101191.13;5054626;28;45535;-70
2023/05/11 14:41:36;;;;;;;;;4.33;3.00;;;;;22.13;48.54;101240.25;5055543;28;46486;-70
2023/05/11 14:44:01;;;;;;;;;4.00;2.33;;;;;21.84;48.23;101175.31;5055693;28;45415;-70
2023/05/11 14:46:27;;;;;;;;;7.00;4.33;;;;;21.82;48.27;101184.59;5044546;28;45651;-72
2023/05/11 14:48:52;;;;;;;;;4.33;3.00;;;;;21.79;48.84;101188.44;5053847;28;45896;-72
2023/05/11 14:51:18;;;;;;;;;3.67;3.00;;;;;21.79;48.69;101196.53;5052418;28;46184;-72
2023/05/11 14:53:43;;;;;;;;;5.67;3.67;;;;;21.88;48.90;101208.34;5050837;28;45527;-72
2023/05/11 14:56:09;;;;;;;;;4.67;4.00;;;;;21.76;48.72;101201.38;5044526;28;45315;-72
2023/05/11 14:58:34;;;;;;;;;4.00;3.00;;;;;21.76;48.83;101190.56;5061655;28;45597;-72
2023/05/11 15:01:00;;;;;;;;;3.50;3.00;;;;;21.81;48.88;101191.84;5041370;28;45358;-73
2023/05/11 15:03:25;;;;;;;;;1.00;1.00;;;;;21.93;49.34;101214.16;5055600;28;45525;-72
2023/05/11 15:05:51;;;;;;;;;3.00;3.00;;;;;21.96;49.64;101218.41;5043298;28;45526;-72
2023/05/11 15:08:16;;;;;;;;;6.00;4.00;;;;;22.03;49.46;101222.22;5055068;28;45555;-74
2023/05/11 15:10:41;;;;;;;;;4.00;2.00;;;;;21.81;49.47;101181.06;5054528;28;45851;-72
2023/05/11 15:13:09;;;;;;;;;5.00;3.33;;;;;22.05;49.84;101209.44;5054419;28;45357;-72
2023/05/11 15:15:35;;;;;;;;;3.00;3.00;;;;;22.09;49.29;101216.25;5045531;28;45603;-72
2023/05/11 15:18:00;;;;;;;;;4.33;3.00;;;;;22.14;49.78;101226.59;5055631;28;45603;-72
2023/05/11 15:20:25;;;;;;;;;2.67;2.00;;;;;21.90;49.87;101181.19;5050788;28;46664;-72
2023/05/11 15:22:51;;;;;;;;;2.00;2.00;;;;;21.87;50.11;101176.06;5054758;28;45653;-72
2023/05/11 15:25:16;;;;;;;;;5.00;4.00;;;;;22.17;49.67;101228.16;5053835;28;45525;-72
2023/05/11 15:27:41;;;;;;;;;4.00;4.00;;;;;21.89;50.12;101180.31;5045396;28;45515;-72
2023/05/11 15:30:07;;;;;;;;;4.33;3.00;;;;;21.91;50.00;101183.72;5049185;28;45756;-72
2023/05/11 15:32:33;;;;;;;;;2.00;2.00;;;;;21.92;49.91;101176.47;5055485;28;45498;-72
2023/05/11 15:34:58;;;;;;;;;3.00;3.00;;;;;21.95;50.32;101187.81;5051219;28;45404;-72
2023/05/11 15:37:24;;;;;;;;;2.00;2.00;;;;;21.99;49.68;101188.41;5035503;28;45388;-72
2023/05/11 15:39:49;;;;;;;;;4.33;4.00;;;;;22.06;49.08;101205.72;5047944;28;46897;-71
2023/05/11 15:42:15;;;;;;;;;3.33;3.33;;;;;21.96;48.51;101183.28;5054595;28;45446;-71
2023/05/11 15:44:40;;;;;;;;;4.00;2.67;;;;;22.00;48.38;101200.03;5041708;28;45931;-72
2023/05/11 15:47:05;;;;;;;;;6.00;5.00;;;;;21.98;48.26;101189.38;5053854;28;45477;-71
2023/05/11 15:49:31;;;;;;;;;3.33;2.67;;;;;22.07;47.99;101218.22;5054229;28;45803;-71
2023/05/11 15:51:57;;;;;;;;;4.33;3.67;;;;;21.83;48.28;101170.09;5054865;28;45709;-71
2023/05/11 15:54:22;;;;;;;;;5.33;4.00;;;;;21.83;48.35;101181.75;5052156;28;45751;-70
2023/05/11 15:56:47;;;;;;;;;4.00;4.00;;;;;21.82;48.10;101176.47;5050610;28;45401;-72
2023/05/11 15:59:13;;;;;;;;;3.00;3.00;;;;;21.80;48.43;101176.66;5051848;28;45780;-73
2023/05/11 16:01:38;;;;;;;;;3.67;3.00;;;;;22.07;48.60;101220.09;5040015;28;45699;-73
2023/05/11 16:04:03;;;;;;;;;6.00;4.33;;;;;21.85;48.76;101185.16;5051162;28;45437;-73
2023/05/11 16:06:29;;;;;;;;;3.00;2.67;;;;;22.02;48.69;101211.59;5048096;28;45707;-74
2023/05/11 16:08:54;;;;;;;;;4.33;3.33;;;;;21.81;48.79;101178.34;5037458;28;46107;-74
2023/05/11 16:11:20;;;;;;;;;2.67;2.67;;;;;21.84;49.21;101178.03;5043589;28;45417;-74
2023/05/11 16:13:46;;;;;;;;;3.67;3.67;;;;;22.05;48.93;101208.56;5052817;28;46427;-71
2023/05/11 16:16:12;;;;;;;;;3.00;3.00;;;;;21.92;49.09;101189.97;5050747;28;45533;-72
2023/05/11 16:18:38;;;;;;;;;4.00;2.33;;;;;21.88;48.91;101181.31;5045926;28;45653;-72
2023/05/11 16:21:04;;;;;;;;;4.33;4.33;;;;;22.11;48.87;101218.78;5052282;28;45654;-70
2023/05/11 16:23:29;;;;;;;;;3.00;3.00;;;;;22.09;48.53;101212.69;5053641;28;45561;-70
2023/05/11 16:25:55;;;;;;;;;3.67;3.67;;;;;21.79;48.17;101163.28;5061003;28;45647;-71
2023/05/11 16:28:21;;;;;;;;;5.00;5.00;;;;;21.82;48.40;101168.38;5049475;28;46570;-71
2023/05/11 16:30:47;;;;;;;;;5.33;4.00;;;;;22.05;48.46;101212.13;5046684;28;45763;-69
2023/05/11 16:33:13;;;;;;;;;5.67;3.33;;;;;22.03;48.31;101207.88;5039312;28;45494;-68
2023/05/11 16:35:38;;;;;;;;;2.33;2.00;;;;;22.01;48.33;101209.84;5041176;28;45401;-72
2023/05/11 16:38:04;;;;;;;;;4.00;4.00;;;;;21.97;48.50;101206.59;5043871;28;53474;-73
2023/05/11 16:40:30;;;;;;;;;6.00;4.00;;;;;22.00;48.37;101210.84;5054266;28;45646;-72
2023/05/11 16:42:56;;;;;;;;;6.00;5.00;;;;;22.01;48.67;101201.75;5049220;28;45745;-72
2023/05/11 16:45:21;;;;;;;;;4.67;4.00;;;;;22.01;48.82;101205.31;5051374;28;45675;-72
2023/05/11 16:47:46;;;;;;;;;6.00;4.33;;;;;22.03;48.97;101208.72;5049765;28;46551;-71
2023/05/11 16:50:13;;;;;;;;;3.67;3.67;;;;;22.04;48.73;101207.72;5042808;28;45381;-70
2023/05/11 16:52:39;;;;;;;;;6.67;5.00;;;;;22.07;49.01;101214.69;5044667;28;45380;-70
2023/05/11 16:55:05;;;;;;;;;6.67;5.00;;;;;22.06;49.26;101213.81;5051980;28;45553;-70
2023/05/11 16:57:32;;;;;;;;;2.00;2.00;;;;;22.06;48.38;101208.41;5053017;28;46063;-71
2023/05/11 16:59:57;;;;;;;;;4.00;3.00;;;;;22.06;47.92;101215.66;5049114;28;45580;-71
2023/05/11 17:02:22;;;;;;;;;4.67;4.67;;;;;22.05;47.94;101211.25;5035114;28;45439;-71
2023/05/11 17:04:48;;;;;;;;;2.33;2.00;;;;;21.99;48.22;101201.91;5053824;28;45674;-71
2023/05/11 17:07:14;;;;;;;;;4.00;2.67;;;;;22.05;47.76;101208.56;5029404;28;57798;-71
2023/05/11 17:09:39;;;;;;;;;4.67;4.00;;;;;22.04;48.09;101202.31;5045491;28;45862;-70
2023/05/11 17:12:08;;;;;;;;;3.33;2.33;;;;;22.05;47.80;101209.44;5046803;28;45683;-71
2023/05/11 17:14:33;;;;;;;;;3.00;3.00;;;;;22.04;47.99;101214.97;5046184;28;45329;-69
2023/05/11 17:16:59;;;;;;;;;4.67;4.00;;;;;22.03;48.04;101210.56;5038975;28;46029;-70
2023/05/11 17:19:24;;;;;;;;;1.67;1.67;;;;;22.02;47.80;101215.13;5050615;28;45569;-69
2023/05/11 17:21:49;;;;;;;;;4.00;3.00;;;;;22.00;47.90;101210.84;5046738;28;45383;-68
2023/05/11 17:24:15;;;;;;;;;1.33;1.33;;;;;21.95;48.12;101208.59;5034664;28;45350;-68
2023/05/11 17:26:40;;;;;;;;;4.00;4.00;;;;;21.96;46.77;101213.00;5040621;28;46253;-69
2023/05/11 17:29:05;;;;;;;;;4.00;3.00;;;;;21.90;45.60;101213.59;5033062;28;45361;-69
2023/05/11 17:31:31;;;;;;;;;3.33;3.00;;;;;21.84;45.45;101206.91;5034555;28;45598;-70